createdAt,value
2023-02-03T00:00:20.664Z,103245.72
2023-02-03T00:02:48.628Z,103233.28
2023-02-03T00:05:18.053Z,103228.81
2023-02-03T00:07:45.955Z,103221.69
2023-02-03T00:10:14.196Z,103216.38
2023-02-03T00:12:42.062Z,103224.38
2023-02-03T00:15:10.843Z,103224.41
2023-02-03T00:17:38.696Z,103232.41
2023-02-03T00:20:07.571Z,103230.63
2023-02-03T00:22:36.851Z,103223.47
2023-02-03T00:25:04.974Z,103220.84
2023-02-03T00:27:33.216Z,103211.03
2023-02-03T00:30:01.107Z,103203.03
2023-02-03T00:32:29.076Z,103198.56
2023-02-03T00:34:57.042Z,103174.66
2023-02-03T00:37:24.929Z,103185.31
2023-02-03T00:39:54.478Z,103180.88
2023-02-03T00:42:22.353Z,103175.56
2023-02-03T00:44:50.262Z,103109.31
2023-02-03T00:47:18.185Z,103156.97
2023-02-03T00:49:46.463Z,103158.72
2023-02-03T00:52:14.350Z,103148.97
2023-02-03T00:54:42.309Z,103141.84
2023-02-03T00:57:11.546Z,103142.72
2023-02-03T00:59:39.426Z,103132.06
2023-02-03T01:02:07.327Z,103140.09
2023-02-03T01:04:35.192Z,103143.66
2023-02-03T01:07:03.074Z,103135.75
2023-02-03T01:09:32.633Z,103143.72
2023-02-03T01:12:00.505Z,103145.53
2023-02-03T01:14:29.765Z,103142.03
2023-02-03T01:16:57.736Z,103138.50
2023-02-03T01:19:25.767Z,103136.63
2023-02-03T01:21:53.646Z,103139.25
2023-02-03T01:24:21.588Z,103140.13
2023-02-03T01:26:49.452Z,103128.50
2023-02-03T01:29:17.363Z,103116.97
2023-02-03T01:31:46.727Z,103116.97
2023-02-03T01:34:16.395Z,103117.00
2023-02-03T01:36:44.386Z,103122.31
2023-02-03T01:39:12.270Z,103125.91
2023-02-03T01:41:40.357Z,103120.53
2023-02-03T01:44:42.246Z,103132.97
2023-02-03T01:47:24.595Z,103134.75
2023-02-03T01:49:56.423Z,103131.16
2023-02-03T01:52:24.697Z,103129.34
2023-02-03T01:54:52.570Z,103137.31
2023-02-03T01:57:22.998Z,103134.63
2023-02-03T01:59:51.078Z,103127.47
2023-02-03T02:02:19.023Z,103131.00
2023-02-03T02:04:52.734Z,103119.41
2023-02-03T02:07:20.603Z,103073.59
2023-02-03T02:09:48.902Z,103130.09
2023-02-03T02:12:16.797Z,103133.63
2023-02-03T02:14:44.711Z,103137.22
2023-02-03T02:17:17.429Z,103123.09
2023-02-03T02:20:03.509Z,103154.97
2023-02-03T02:22:32.096Z,103152.34
2023-02-03T02:25:05.713Z,103151.41
2023-02-03T02:28:10.141Z,103153.13
2023-02-03T02:30:44.462Z,103163.78
2023-02-03T02:33:16.744Z,103159.28
2023-02-03T02:35:48.854Z,103166.41
2023-02-03T02:38:21.456Z,103170.00
2023-02-03T02:40:52.712Z,103167.34
2023-02-03T02:43:21.563Z,103172.63
2023-02-03T02:45:50.596Z,103170.81
2023-02-03T02:48:24.312Z,103170.00
2023-02-03T02:50:54.501Z,103183.25
2023-02-03T02:53:23.573Z,103187.72
2023-02-03T02:55:51.655Z,103190.38
2023-02-03T02:58:19.560Z,103183.28
2023-02-03T03:00:48.423Z,103190.38
2023-02-03T03:03:17.334Z,103186.81
2023-02-03T03:05:50.483Z,103184.09
2023-02-03T03:08:18.354Z,103169.13
2023-02-03T03:10:46.224Z,103180.56
2023-02-03T03:13:17.274Z,103179.72
2023-02-03T03:15:45.382Z,103175.34
2023-02-03T03:18:14.982Z,103179.69
2023-02-03T03:20:44.273Z,103186.78
2023-02-03T03:23:16.616Z,103181.44
2023-02-03T03:25:47.239Z,103182.31
2023-02-03T03:28:16.699Z,103177.13
2023-02-03T03:30:44.576Z,103192.16
2023-02-03T03:33:12.565Z,103171.09
2023-02-03T03:35:41.853Z,103196.78
2023-02-03T03:38:12.116Z,103201.25
2023-02-03T03:40:42.933Z,103198.63
2023-02-03T03:43:12.899Z,103188.03
2023-02-03T03:45:43.601Z,103181.00
2023-02-03T03:48:13.922Z,103188.91
2023-02-03T03:50:43.212Z,103191.53
2023-02-03T03:53:11.539Z,103194.19
2023-02-03T03:55:39.406Z,103185.28
2023-02-03T03:58:10.436Z,103187.06
2023-02-03T04:00:39.736Z,103186.22
2023-02-03T04:03:09.788Z,103178.22
2023-02-03T04:05:37.647Z,103192.44
2023-02-03T04:08:05.583Z,103196.00
2023-02-03T04:10:34.347Z,103198.66
2023-02-03T04:13:02.268Z,103199.53
2023-02-03T04:15:31.643Z,103195.97
2023-02-03T04:18:01.456Z,103201.31
2023-02-03T04:20:29.631Z,103199.56
2023-02-03T04:22:57.782Z,103208.44
2023-02-03T04:25:25.823Z,103195.13
2023-02-03T04:27:53.730Z,103193.44
2023-02-03T04:30:21.724Z,103202.31
2023-02-03T04:32:50.961Z,103209.47
2023-02-03T04:35:19.041Z,103205.03
2023-02-03T04:37:46.963Z,103205.06
2023-02-03T04:40:14.846Z,103193.63
2023-02-03T04:42:42.724Z,103213.03
2023-02-03T04:45:11.728Z,103214.81
2023-02-03T04:47:39.800Z,103214.78
2023-02-03T04:50:09.973Z,103213.91
2023-02-03T04:52:37.946Z,103214.81
2023-02-03T04:55:06.480Z,103200.56
2023-02-03T04:57:34.611Z,103209.50
2023-02-03T05:00:02.548Z,103206.84
2023-02-03T05:02:30.403Z,103213.97
2023-02-03T05:04:58.264Z,103217.56
2023-02-03T05:07:27.613Z,103215.78
2023-02-03T05:09:55.536Z,103217.56
2023-02-03T05:12:23.403Z,103230.91
2023-02-03T05:14:51.284Z,103236.25
2023-02-03T05:17:19.124Z,103245.09
2023-02-03T05:19:47.028Z,103247.75
2023-02-03T05:22:14.889Z,103237.97
2023-02-03T05:24:44.130Z,103229.97
2023-02-03T05:27:12.002Z,103224.63
2023-02-03T05:29:39.874Z,103209.56
2023-02-03T05:32:07.832Z,103214.09
2023-02-03T05:34:35.802Z,103214.13
2023-02-03T05:37:04.001Z,103157.69
2023-02-03T05:39:31.869Z,103223.09
2023-02-03T05:42:00.115Z,103220.47
2023-02-03T05:44:28.929Z,103223.09
2023-02-03T05:46:57.389Z,103231.94
2023-02-03T05:49:25.283Z,103230.16
2023-02-03T05:51:53.524Z,103231.00
2023-02-03T05:54:21.417Z,103230.97
2023-02-03T05:56:49.318Z,103223.00
2023-02-03T05:59:18.696Z,103225.72
2023-02-03T06:01:46.573Z,103228.38
2023-02-03T06:04:14.518Z,103216.91
2023-02-03T06:06:42.407Z,103231.09
2023-02-03T06:09:10.444Z,103223.16
2023-02-03T06:11:38.310Z,103226.59
2023-02-03T06:14:06.188Z,103239.03
2023-02-03T06:16:35.469Z,103236.34
2023-02-03T06:19:03.380Z,103242.56
2023-02-03T06:21:31.282Z,103235.44
2023-02-03T06:23:59.163Z,103239.00
2023-02-03T06:26:27.025Z,103244.31
2023-02-03T06:28:54.880Z,103230.09
2023-02-03T06:31:22.945Z,103234.56
2023-02-03T06:33:52.305Z,103238.97
2023-02-03T06:36:20.207Z,103228.31
2023-02-03T06:38:48.102Z,103232.75
2023-02-03T06:41:16.044Z,103236.31
2023-02-03T06:43:43.897Z,103246.09
2023-02-03T06:46:12.604Z,103255.88
2023-02-03T06:48:40.550Z,103255.06
2023-02-03T06:51:09.801Z,103266.56
2023-02-03T06:53:37.727Z,103270.13
2023-02-03T06:56:06.043Z,103278.09
2023-02-03T06:58:34.010Z,103282.53
2023-02-03T07:01:01.903Z,103292.31
2023-02-03T07:03:29.808Z,103289.63
2023-02-03T07:05:57.720Z,103291.41
2023-02-03T07:08:27.051Z,103293.19
2023-02-03T07:10:55.436Z,103294.06
2023-02-03T07:13:23.356Z,103289.63
2023-02-03T07:15:51.767Z,103295.88
2023-02-03T07:18:45.606Z,103294.13
2023-02-03T07:21:11.752Z,103313.69
2023-02-03T07:23:41.132Z,103307.47
2023-02-03T07:26:09.143Z,103312.78
2023-02-03T07:28:37.349Z,103314.56
2023-02-03T07:31:05.810Z,103310.13
2023-02-03T07:33:33.761Z,103273.06
2023-02-03T07:36:01.713Z,103320.81
2023-02-03T07:38:30.045Z,103323.53
2023-02-03T07:40:59.297Z,103326.25
2023-02-03T07:43:27.220Z,103329.81
2023-02-03T07:45:55.120Z,103342.25
2023-02-03T07:48:23.001Z,103337.75
2023-02-03T07:50:50.905Z,103321.88
2023-02-03T07:53:18.873Z,103332.44
2023-02-03T07:55:46.789Z,103339.53
2023-02-03T07:58:17.102Z,103351.94
2023-02-03T08:00:45.033Z,103349.31
2023-02-03T08:03:12.998Z,103347.47
2023-02-03T08:05:40.900Z,103357.22
2023-02-03T08:08:08.982Z,103331.56
2023-02-03T08:10:36.865Z,103368.66
2023-02-03T08:13:04.823Z,103365.06
2023-02-03T08:15:34.237Z,103364.16
2023-02-03T08:18:02.134Z,103369.44
2023-02-03T08:20:30.430Z,103372.97
2023-02-03T08:22:58.542Z,103379.16
2023-02-03T08:25:26.437Z,103368.50
2023-02-03T08:27:54.573Z,103373.81
2023-02-03T08:30:23.062Z,103376.50
2023-02-03T08:32:53.007Z,103383.59
2023-02-03T08:35:21.162Z,103360.56
2023-02-03T08:37:49.052Z,103382.69
2023-02-03T08:40:16.993Z,103381.78
2023-02-03T08:42:45.128Z,103364.03
2023-02-03T08:45:13.193Z,103386.19
2023-02-03T08:47:41.211Z,103383.50
2023-02-03T08:50:12.345Z,103380.91
2023-02-03T08:52:40.304Z,103388.78
2023-02-03T08:55:08.404Z,103380.78
2023-02-03T08:57:36.591Z,103387.88
2023-02-03T09:00:05.152Z,103388.75
2023-02-03T09:02:33.160Z,103389.59
2023-02-03T09:05:01.248Z,103381.66
2023-02-03T09:07:30.577Z,103411.75
2023-02-03T09:09:58.555Z,103408.19
2023-02-03T09:12:26.484Z,103409.97
2023-02-03T09:14:54.338Z,103409.03
2023-02-03T09:17:22.270Z,103408.13
2023-02-03T09:19:50.207Z,103408.13
2023-02-03T09:22:18.208Z,103415.16
2023-02-03T09:24:50.589Z,103414.28
2023-02-03T09:27:20.585Z,103404.47
2023-02-03T09:29:48.459Z,103410.66
2023-02-03T09:32:16.340Z,103407.13
2023-02-03T09:34:44.225Z,103413.25
2023-02-03T09:37:12.145Z,103428.34
2023-02-03T09:39:40.046Z,103434.50
2023-02-03T09:42:19.344Z,103438.88
2023-02-03T09:44:50.048Z,103429.03
2023-02-03T09:47:20.054Z,103447.72
2023-02-03T09:49:50.446Z,103435.25
2023-02-03T09:52:19.567Z,103442.34
2023-02-03T09:54:51.573Z,103441.44
2023-02-03T09:57:22.636Z,103447.59
2023-02-03T09:59:50.594Z,103449.34
2023-02-03T10:02:27.411Z,103451.13
2023-02-03T10:04:59.117Z,103452.84
2023-02-03T10:07:29.369Z,103456.31
2023-02-03T10:09:59.250Z,103458.03
2023-02-03T10:12:40.766Z,103454.44
2023-02-03T10:15:21.158Z,103457.97
2023-02-03T10:17:50.144Z,103463.28
2023-02-03T10:20:21.532Z,103461.47
2023-02-03T10:22:51.089Z,103453.41
2023-02-03T10:25:24.797Z,103415.44
2023-02-03T10:27:54.403Z,103464.06
2023-02-03T10:30:23.130Z,103468.50
2023-02-03T10:32:53.206Z,103472.91
2023-02-03T10:35:21.394Z,103480.91
2023-02-03T10:37:50.637Z,103489.78
2023-02-03T10:40:18.518Z,103485.34
2023-02-03T10:43:03.739Z,103484.38
2023-02-03T10:45:35.368Z,103479.81
2023-02-03T10:48:03.293Z,103489.53
2023-02-03T10:50:32.386Z,103493.00
2023-02-03T10:53:21.794Z,103453.25
2023-02-03T10:55:50.680Z,103504.56
2023-02-03T10:58:20.534Z,103512.53
2023-02-03T11:00:52.011Z,103503.59
2023-02-03T11:03:23.193Z,103497.47
2023-02-03T11:06:04.505Z,103497.41
2023-02-03T11:08:32.538Z,103508.06
2023-02-03T11:11:04.244Z,103506.22
2023-02-03T11:13:32.195Z,103503.47
2023-02-03T11:16:02.602Z,103483.88
2023-02-03T11:18:57.259Z,103500.47
2023-02-03T11:21:25.953Z,103508.31
2023-02-03T11:23:56.079Z,103495.72
2023-02-03T11:26:25.334Z,103503.69
2023-02-03T11:28:54.634Z,103503.13
2023-02-03T11:31:26.008Z,103502.13
2023-02-03T11:33:56.288Z,103504.41
2023-02-03T11:36:24.466Z,103498.50
2023-02-03T11:38:52.661Z,103490.91
2023-02-03T11:41:23.853Z,103499.88
2023-02-03T11:43:53.551Z,103497.22
2023-02-03T11:46:21.847Z,103498.00
2023-02-03T11:49:01.048Z,103502.78
2023-02-03T11:51:33.559Z,103512.13
2023-02-03T11:54:06.943Z,103501.94
2023-02-03T11:56:55.272Z,103509.59
2023-02-03T11:59:45.553Z,103493.41
2023-02-03T12:02:39.757Z,103495.88
2023-02-03T12:05:25.228Z,103495.03
2023-02-03T12:08:05.910Z,103501.13
2023-02-03T12:10:40.369Z,103498.84
2023-02-03T12:13:16.407Z,103505.41
2023-02-03T12:16:09.942Z,103497.06
2023-02-03T12:18:52.246Z,103495.47
2023-02-03T12:21:44.053Z,103500.13
2023-02-03T12:24:19.119Z,103495.41
2023-02-03T12:26:51.009Z,103489.72
2023-02-03T12:29:21.837Z,103449.81
2023-02-03T12:32:01.951Z,103468.81
2023-02-03T12:34:31.566Z,103488.41
2023-02-03T12:37:04.536Z,103472.69
2023-02-03T12:39:34.853Z,103488.31
2023-02-03T12:42:04.049Z,103484.38
2023-02-03T12:44:34.000Z,103486.72
2023-02-03T12:47:04.504Z,103490.34
2023-02-03T12:49:36.782Z,103489.00
2023-02-03T12:52:07.096Z,103489.81
2023-02-03T12:54:40.069Z,103498.81
2023-02-03T12:57:15.418Z,103490.03
2023-02-03T12:59:43.368Z,103487.84
2023-02-03T13:02:15.053Z,103493.22
2023-02-03T13:04:44.554Z,103502.09
2023-02-03T13:07:16.620Z,103492.00
2023-02-03T13:09:49.031Z,103488.88
2023-02-03T13:12:21.572Z,103486.19
2023-02-03T13:14:50.715Z,103496.63
2023-02-03T13:17:20.552Z,103483.81
2023-02-03T13:19:51.439Z,103487.78
2023-02-03T13:22:23.847Z,103500.50
2023-02-03T13:24:54.551Z,103489.63
2023-02-03T13:27:41.963Z,103493.09
2023-02-03T13:30:18.106Z,103488.03
2023-02-03T13:32:57.339Z,103494.03
2023-02-03T13:35:39.418Z,103492.25
2023-02-03T13:38:24.349Z,103494.72
2023-02-03T13:40:57.603Z,103484.47
2023-02-03T13:43:38.224Z,103488.31
2023-02-03T13:46:09.105Z,103488.56
2023-02-03T13:48:37.687Z,103482.47
2023-02-03T13:51:08.279Z,103488.38
2023-02-03T13:53:39.068Z,103480.47
2023-02-03T13:56:07.749Z,103494.38
2023-02-03T13:58:36.804Z,103483.19
2023-02-03T14:01:07.368Z,103483.41
2023-02-03T14:03:45.421Z,103484.44
2023-02-03T14:06:55.006Z,103491.34
2023-02-03T14:09:35.595Z,103490.47
2023-02-03T14:12:22.851Z,103490.97
2023-02-03T14:15:06.995Z,103488.19
2023-02-03T14:17:55.807Z,103489.53
2023-02-03T14:20:58.481Z,103478.84
2023-02-03T14:23:35.325Z,103482.66
2023-02-03T14:26:04.685Z,103484.44
2023-02-03T14:28:39.985Z,103484.13
2023-02-03T14:31:20.737Z,103480.91
2023-02-03T14:34:05.908Z,103464.59
2023-02-03T14:36:36.332Z,103473.34
2023-02-03T14:39:06.923Z,103471.09
2023-02-03T14:41:45.354Z,103473.31
2023-02-03T14:44:17.828Z,103476.38
2023-02-03T14:46:53.978Z,103477.22
2023-02-03T14:49:35.823Z,103471.25
2023-02-03T14:52:17.921Z,103466.59
2023-02-03T14:54:52.883Z,103478.06
2023-02-03T14:57:34.669Z,103479.41
2023-02-03T15:00:03.345Z,103484.09
2023-02-03T15:02:31.560Z,103487.19
2023-02-03T15:05:29.776Z,103485.28
2023-02-03T15:07:57.943Z,103492.09
2023-02-03T15:10:26.614Z,103488.84
2023-02-03T15:12:57.120Z,103490.53
2023-02-03T15:15:26.424Z,103476.84
2023-02-03T15:17:55.235Z,103494.03
2023-02-03T15:20:35.364Z,103498.81
2023-02-03T15:23:03.499Z,103497.25
2023-02-03T15:25:33.010Z,103488.41
2023-02-03T15:28:19.377Z,103483.97
2023-02-03T15:30:48.851Z,103505.31
2023-02-03T15:33:20.393Z,103498.09
2023-02-03T15:35:49.254Z,103493.75
2023-02-03T15:38:18.645Z,103500.28
2023-02-03T15:40:49.072Z,103506.63
2023-02-03T15:43:19.599Z,103506.81
2023-02-03T15:45:54.457Z,103507.84
2023-02-03T15:48:26.718Z,103490.31
2023-02-03T15:50:56.018Z,103493.25
2023-02-03T15:53:29.646Z,103512.72
2023-02-03T15:56:04.543Z,103524.53
2023-02-03T15:58:36.125Z,103511.31
2023-02-03T16:01:05.327Z,103525.69
2023-02-03T16:03:35.350Z,103527.56
2023-02-03T16:06:08.958Z,103526.75
2023-02-03T16:08:39.802Z,103532.28
2023-02-03T16:11:26.380Z,103535.13
2023-02-03T16:13:56.599Z,103517.56
2023-02-03T16:16:26.529Z,103535.44
2023-02-03T16:18:55.206Z,103541.88
2023-02-03T16:21:31.134Z,103538.50
2023-02-03T16:23:59.357Z,103542.22
2023-02-03T16:26:27.645Z,103541.41
2023-02-03T16:29:23.437Z,103544.22
2023-02-03T16:32:08.793Z,103548.78
2023-02-03T16:34:54.048Z,103559.47
2023-02-03T16:37:42.354Z,103555.06
2023-02-03T16:40:28.257Z,103556.91
2023-02-03T16:43:13.370Z,103554.28
2023-02-03T16:46:00.165Z,103549.78
2023-02-03T16:48:45.329Z,103551.59
2023-02-03T16:51:15.857Z,103555.19
2023-02-03T16:53:45.166Z,103562.34
2023-02-03T16:56:13.233Z,103567.69
2023-02-03T16:58:41.148Z,103559.72
2023-02-03T17:01:11.712Z,103566.00
2023-02-03T17:03:39.725Z,103564.25
2023-02-03T17:06:08.638Z,103564.22
2023-02-03T17:08:36.779Z,103564.28
2023-02-03T17:11:05.985Z,103566.03
2023-02-03T17:13:33.954Z,103579.41
2023-02-03T17:16:01.952Z,103574.97
2023-02-03T17:18:31.410Z,103574.97
2023-02-03T17:21:05.046Z,103568.75
2023-02-03T17:23:32.978Z,103569.69
2023-02-03T17:26:00.887Z,103575.91
2023-02-03T17:28:28.862Z,103583.06
2023-02-03T17:30:57.738Z,103583.06
2023-02-03T17:33:25.757Z,103579.50
2023-02-03T17:36:02.865Z,103583.94
2023-02-03T17:38:30.757Z,103576.81
2023-02-03T17:54:48.060Z,103597.38
2023-02-03T17:57:15.948Z,103600.03
2023-02-03T17:59:43.865Z,103602.69
2023-02-03T18:02:11.759Z,103590.25
2023-02-03T18:04:39.746Z,103606.25
2023-02-03T18:07:09.019Z,103604.47
2023-02-03T18:09:36.935Z,103615.16
2023-02-03T18:12:05.225Z,103611.56
2023-02-03T18:14:33.091Z,103609.81
2023-02-03T18:17:01.004Z,103613.38
2023-02-03T18:19:28.907Z,103613.44
2023-02-03T18:21:56.817Z,103616.09
2023-02-03T18:24:28.707Z,103616.97
2023-02-03T18:26:56.796Z,103624.16
2023-02-03T18:29:26.156Z,103613.47
2023-02-03T18:31:54.204Z,103619.72
2023-02-03T18:34:22.095Z,103623.28
2023-02-03T18:36:49.995Z,103627.72
2023-02-03T18:39:17.972Z,103622.41
2023-02-03T18:41:47.338Z,103625.94
2023-02-03T18:44:15.256Z,103622.38
2023-02-03T18:46:43.126Z,103628.59
2023-02-03T18:49:12.212Z,103626.78
2023-02-03T18:51:40.079Z,103624.09
2023-02-03T18:54:08.046Z,103632.13
2023-02-03T18:56:36.035Z,103633.00
2023-02-03T18:59:09.516Z,103638.34
2023-02-03T19:01:38.839Z,103640.13
2023-02-03T19:04:06.994Z,103628.53
2023-02-03T19:06:35.477Z,103635.66
2023-02-03T19:09:03.617Z,103632.13
2023-02-03T19:11:33.736Z,103633.00
2023-02-03T19:14:01.575Z,103629.44
2023-02-03T19:16:30.890Z,103628.56
2023-02-03T19:18:58.807Z,103628.56
2023-02-03T19:21:26.741Z,103632.09
2023-02-03T19:23:54.671Z,103637.41
2023-02-03T19:26:22.550Z,103637.41
2023-02-03T19:28:50.961Z,103624.13
2023-02-03T19:31:19.099Z,103635.63
2023-02-03T19:33:48.396Z,103632.94
2023-02-03T19:36:16.613Z,103627.59
2023-02-03T19:38:44.834Z,103616.97
2023-02-03T19:41:12.788Z,103641.84
2023-02-03T19:43:41.646Z,103640.97
2023-02-03T19:46:13.903Z,103637.41
2023-02-03T19:48:43.157Z,103646.31
2023-02-03T19:51:13.932Z,103648.09
2023-02-03T19:53:44.360Z,103646.31
2023-02-03T19:56:12.331Z,103649.88
2023-02-03T19:58:40.574Z,103641.84
2023-02-03T20:01:10.204Z,103640.91
2023-02-03T20:03:38.265Z,103648.06
2023-02-03T20:06:08.286Z,103640.94
2023-02-03T20:08:37.547Z,103643.56
2023-02-03T20:11:06.810Z,103637.41
2023-02-03T20:13:34.780Z,103649.88
2023-02-03T20:16:02.707Z,103648.09
2023-02-03T20:18:30.789Z,103643.66
2023-02-03T20:20:59.914Z,103647.22
2023-02-03T20:23:27.828Z,103645.44
2023-02-03T20:25:57.144Z,103598.50
2023-02-03T20:28:26.474Z,103645.44
2023-02-03T20:30:54.754Z,103647.19
2023-02-03T20:33:22.704Z,103644.53
2023-02-03T20:35:50.653Z,103647.19
2023-02-03T20:38:18.868Z,103637.41
2023-02-03T20:40:47.070Z,103635.63
2023-02-03T20:43:17.045Z,103632.97
2023-02-03T20:45:45.076Z,103628.53
2023-02-03T20:48:13.303Z,103632.09
2023-02-03T20:50:46.551Z,103632.13
2023-02-03T20:53:15.256Z,103631.25
2023-02-03T20:55:44.282Z,103627.72
2023-02-03T20:58:17.927Z,103610.03
2023-02-03T21:00:45.937Z,103628.59
2023-02-03T21:03:32.100Z,103631.25
2023-02-03T21:05:59.976Z,103636.59
2023-02-03T21:08:28.004Z,103642.84
2023-02-03T21:10:56.244Z,103641.06
2023-02-03T21:13:26.518Z,103643.72
2023-02-03T21:15:55.101Z,103642.84
2023-02-03T21:18:34.626Z,103644.59
2023-02-03T21:21:02.588Z,103640.19
2023-02-03T21:23:36.757Z,103647.28
2023-02-03T21:26:15.650Z,103645.50
2023-02-03T21:28:44.904Z,103645.50
2023-02-03T21:31:23.898Z,103651.69
2023-02-03T21:33:52.006Z,103648.16
2023-02-03T21:36:20.659Z,103657.03
2023-02-03T21:38:50.026Z,103655.25
2023-02-03T21:41:18.818Z,103649.91
2023-02-03T21:43:51.034Z,103655.25
2023-02-03T21:46:19.201Z,103653.50
2023-02-03T21:48:50.641Z,103657.03
2023-02-03T21:51:20.564Z,103652.63
2023-02-03T21:53:54.525Z,103649.94
2023-02-03T21:56:23.776Z,103653.53
2023-02-03T21:58:54.171Z,103656.22
2023-02-03T22:01:23.031Z,103658.00
2023-02-03T22:03:51.957Z,103662.44
2023-02-03T22:06:27.199Z,103657.13
2023-02-03T22:08:55.765Z,103661.63
2023-02-03T22:11:25.074Z,103658.94
2023-02-03T22:13:54.358Z,103663.44
2023-02-03T22:16:22.342Z,103662.53
2023-02-03T22:18:50.325Z,103665.22
2023-02-03T22:21:18.256Z,103662.56
2023-02-03T22:23:46.158Z,103661.66
2023-02-03T22:26:14.422Z,103667.00
2023-02-03T22:28:42.699Z,103673.19
2023-02-03T22:31:13.107Z,103679.41
2023-02-03T22:33:41.399Z,103679.44
2023-02-03T22:36:10.546Z,103676.78
2023-02-03T22:38:38.521Z,103682.13
2023-02-03T22:41:07.615Z,103689.28
2023-02-03T22:43:35.631Z,103682.16
2023-02-03T22:46:04.869Z,103685.72
2023-02-03T22:48:34.226Z,103689.25
2023-02-03T22:51:02.090Z,103690.13
2023-02-03T22:53:30.106Z,103692.81
2023-02-03T22:55:58.087Z,103699.91
2023-02-03T22:58:25.999Z,103693.69
2023-02-03T23:00:53.886Z,103698.13
2023-02-03T23:03:21.773Z,103689.25
2023-02-03T23:05:51.184Z,103696.38
2023-02-03T23:08:19.058Z,103704.38
2023-02-03T23:10:48.245Z,103705.25
2023-02-03T23:13:16.166Z,103700.81
2023-02-03T23:15:44.075Z,103701.69
2023-02-03T23:18:12.004Z,103709.69
2023-02-03T23:20:39.957Z,103711.50
2023-02-03T23:23:09.213Z,103716.88
2023-02-03T23:25:37.074Z,103727.53
2023-02-03T23:28:05.370Z,103722.16
2023-02-03T23:30:34.167Z,103715.94
2023-02-03T23:33:02.071Z,103713.28
2023-02-03T23:35:47.121Z,103722.19
2023-02-03T23:38:16.794Z,103725.75
2023-02-03T23:40:44.951Z,103728.41
2023-02-03T23:43:12.827Z,103737.31
2023-02-03T23:45:40.757Z,103742.66
2023-02-03T23:48:08.715Z,103735.56
2023-02-03T23:50:36.589Z,103740.88
2023-02-03T23:53:04.450Z,103740.00
2023-02-03T23:55:33.707Z,103748.00
2023-02-03T23:58:01.586Z,103737.31
